Home > Products > Valid Products > TAF

000
FTUS42 KFFC 011000 AAB
TAFATL
TAF AMD
KATL 011001Z 0110/0212 06007KT P6SM SCT004 OVC008
      TEMPO 0110/0112 4SM BR OVC004
     FM011500 07006KT P6SM VCSH BKN012
     FM011800 06005KT P6SM VCSH SCT025 BKN035
      TEMPO 0119/0123 6SM -SHRA BR BKN025
     FM012300 05004KT P6SM VCSH BKN025
     FM020800 05004KT P6SM OVC008=



000
FTUS42 KFFC 010700 AAA
TAFATL
TAF AMD
KATL 010744Z 0108/0212 06007KT P6SM VCSH SCT004 OVC008
      TEMPO 0108/0112 4SM BR OVC004
     FM011500 07006KT P6SM VCSH BKN012
     FM011800 06005KT P6SM VCSH SCT025 BKN035
      TEMPO 0119/0123 6SM -SHRA BR BKN025
     FM012300 05004KT P6SM VCSH BKN025
     FM020800 05004KT P6SM OVC008=



000
FTUS42 KFFC 010500
TAFMCN
TAF
KMCN 010534Z 0106/0206 04005KT P6SM BKN015
     FM010900 04003KT P6SM BKN008
     FM011500 06005KT P6SM BKN015
     FM011700 04004KT P6SM BKN040 PROB30 0118/0123 4SM -TSRA BR
      BKN025CB
     FM012300 05004KT P6SM VCSH SCT025 BKN080=



000
FTUS42 KFFC 010500
TAFCSG
TAF
KCSG 010534Z 0106/0206 05005KT P6SM BKN015
     FM011500 06005KT P6SM BKN025
     FM011800 04004KT P6SM BKN045 PROB30 0118/0123 4SM -TSRA BR
      BKN030CB
     FM012300 05004KT P6SM VCSH SCT025 BKN080=



000
FTUS42 KFFC 010500
TAFFTY
TAF
KFTY 010534Z 0106/0206 06007KT P6SM VCSH SCT004 OVC008
      TEMPO 0110/0112 4SM BR OVC004
     FM011500 07006KT P6SM VCSH BKN012
     FM011800 06005KT P6SM VCSH SCT025 BKN035
      TEMPO 0119/0123 6SM -SHRA BR BKN025
     FM012300 05004KT P6SM VCSH BKN025=



000
FTUS42 KFFC 010500
TAFRYY
TAF
KRYY 010534Z 0106/0206 06007KT P6SM VCSH SCT004 OVC008
      TEMPO 0110/0112 4SM BR OVC004
     FM011500 07006KT P6SM VCSH BKN012
     FM011800 06005KT P6SM VCSH SCT025 BKN035
      TEMPO 0119/0123 6SM -SHRA BR BKN025
     FM012300 05004KT P6SM VCSH BKN025
      AMD NOT SKED TIL 011200=



000
FTUS42 KFFC 010500
TAFATL
TAF
KATL 010534Z 0106/0212 06007KT P6SM VCSH SCT004 OVC008
      TEMPO 0110/0112 4SM BR OVC004
     FM011500 07006KT P6SM VCSH BKN012
     FM011800 06005KT P6SM VCSH SCT025 BKN035
      TEMPO 0119/0123 6SM -SHRA BR BKN025
     FM012300 05004KT P6SM VCSH BKN025
     FM020800 05004KT P6SM OVC008=



000
FTUS42 KFFC 010500
TAFAHN
TAF
KAHN 010534Z 0106/0206 04007KT 6SM BR OVC006
      TEMPO 0108/0112 3SM -RA BR OVC003
     FM011500 07006KT P6SM VCSH BKN012
     FM011800 06005KT P6SM VCSH SCT025 BKN035
      TEMPO 0119/0123 6SM -SHRA BR BKN025
     FM012300 05004KT P6SM VCSH BKN025=



000
FTUS42 KFFC 010500
TAFPDK
TAF
KPDK 010534Z 0106/0206 06007KT P6SM VCSH SCT004 OVC008
      TEMPO 0110/0112 4SM BR OVC004
     FM011500 07006KT P6SM VCSH BKN012
     FM011800 06005KT P6SM VCSH SCT025 BKN035
      TEMPO 0119/0123 6SM -SHRA BR BKN025
     FM012300 05004KT P6SM VCSH BKN025=



000
FTUS42 KFFC 010300 AAC
TAFATL
TAF AMD
KATL 010338Z 0104/0206 07008KT P6SM -RA SCT010 BKN025
     FM010500 07007KT P6SM SCT008 BKN015
     FM010800 06007KT P6SM VCSH BKN007 PROB30 0113/0115 4SM -RA BR
     FM011500 07006KT 5SM -SHRA BKN015 BKN025
     FM011800 06005KT P6SM -SHRA BKN040=



000
FTUS42 KFFC 010300 AAB
TAFAHN
TAF AMD
KAHN 010315Z 0103/0124 05007KT P6SM VCSH BKN010
     FM010600 06003KT 6SM BR VCSH BKN006 PROB30 0112/0115 4SM -RA BR
     FM011500 06005KT 5SM -SHRA BKN015 BKN025
     FM011800 07004KT 6SM -SHRA BKN035=



000
FTUS42 KFFC 010100 AAB
TAFATL
TAF AMD
KATL 010158Z 0102/0206 07008KT P6SM -RA SCT012 BKN045
     FM010500 07007KT P6SM BKN018
     FM010800 06007KT P6SM BKN007 PROB30 0112/0115 4SM -RA BR
     FM011500 07006KT 5SM -SHRA BKN015 BKN025
     FM011800 06005KT P6SM -SHRA BKN040=



000
FTUS42 KFFC 010100 AAA
TAFRYY
TAF AMD
KRYY 010105Z 0101/0124 07007KT 6SM -RA BR BKN045
     FM010500 06005KT P6SM BKN018
     FM010800 06003KT 6SM BR BKN007 PROB30 0110/0115 4SM -RA BR
     FM011500 07005KT 5SM -SHRA BKN015 BKN025
     FM011800 05004KT 6SM -SHRA BKN035
      AMD NOT SKED 0104/0112=



000
FTUS42 KFFC 010100 AAA
TAFFTY
TAF AMD
KFTY 010105Z 0101/0124 06006KT P6SM -RA SCT020 BKN045
     FM010500 07005KT P6SM BKN018
     FM010800 06003KT 6SM BR BKN007 PROB30 0110/0115 4SM -RA BR
     FM011500 07005KT 5SM -SHRA BKN015 BKN025
     FM011800 05004KT 6SM -SHRA BKN035=



000
FTUS42 KFFC 010100 AAA
TAFPDK
TAF AMD
KPDK 010105Z 0101/0124 05006KT 6SM -RA BR SCT020 BKN045
     FM010500 06005KT P6SM BKN018
     FM010800 06003KT P6SM BKN007 PROB30 0110/0115 4SM -RA BR
     FM011500 07005KT 5SM -SHRA BKN015 BKN025
     FM011800 05004KT 6SM -SHRA BKN035=



000
FTUS42 KFFC 010100 AAA
TAFAHN
TAF AMD
KAHN 010105Z 0101/0124 07007KT P6SM VCSH SCT025 BKN050
     FM010500 05007KT P6SM BKN018
     FM010800 06003KT 6SM BR BKN007 PROB30 0110/0115 4SM -RA BR
     FM011500 06005KT 5SM -SHRA BKN015 BKN025
     FM011800 07004KT 6SM -SHRA BKN035=



000
FTUS42 KFFC 010000 AAA
TAFATL
TAF AMD
KATL 010050Z 0101/0206 07008KT P6SM VCSH BKN045
     FM010500 07007KT P6SM BKN018
     FM010800 06007KT P6SM BKN007 PROB30 0110/0115 4SM -RA BR
     FM011500 07006KT 5SM -SHRA BKN015 BKN025
     FM011800 06005KT P6SM -SHRA BKN040=



000
FTUS42 KFFC 312300 RRA
TAFRYY
TAF
KRYY 312342Z 0100/0124 07007KT P6SM VCSH SCT025 BKN050
     FM010100 07006KT P6SM BKN050
     FM010500 06005KT P6SM BKN018
     FM010800 06003KT 6SM BR BKN007 PROB30 0109/0115 4SM -RA BR
     FM011500 07005KT 5SM -SHRA BKN015 BKN025
     FM011800 05004KT 6SM -SHRA BKN035
      AMD NOT SKED 0104/0112=



000
FTUS42 KFFC 312300 RRA
TAFMCN
TAF
KMCN 312342Z 0100/0124 03004KT P6SM VCSH BKN040
     FM010100 07006KT P6SM BKN050
     FM010500 05005KT P6SM BKN018
     FM010800 06003KT P6SM BKN007
     FM011500 06005KT P6SM BKN015 BKN025
     FM011700 04004KT P6SM BKN045 PROB30 0117/0123 4SM -SHRA BR=



000
FTUS42 KFFC 312300 RRA
TAFAHN
TAF
KAHN 312342Z 0100/0124 07008KT P6SM BKN035
     FM010500 05007KT P6SM BKN018
     FM010800 06003KT 6SM BR BKN007 PROB30 0109/0115 4SM -RA BR
     FM011500 06005KT 5SM -SHRA BKN015 BKN025
     FM011800 07004KT 6SM -SHRA BKN035=



000
FTUS42 KFFC 312300 RRA
TAFFTY
TAF
KFTY 312342Z 0100/0124 06007KT P6SM -SHRA BKN035
     FM010100 06006KT P6SM BKN050
     FM010500 07005KT P6SM BKN018
     FM010800 06003KT 6SM BR BKN007 PROB30 0109/0115 4SM -RA BR
     FM011500 07005KT 5SM -SHRA BKN015 BKN025
     FM011800 05004KT 6SM -SHRA BKN035=



000
FTUS42 KFFC 312300 RRA
TAFATL
TAF
KATL 312342Z 0100/0206 07008KT P6SM BKN050
     FM010500 07007KT P6SM BKN018
     FM010800 06007KT P6SM BKN007 PROB30 0109/0115 4SM -RA BR
     FM011500 07006KT 5SM -SHRA BKN015 BKN025
     FM011800 06005KT P6SM -SHRA BKN040=



000
FTUS42 KFFC 312300 RRA
TAFPDK
TAF
KPDK 312342Z 0100/0124 05007KT 4SM -SHRA FEW009 BKN050
     FM010100 07006KT P6SM BKN050
     FM010500 06005KT P6SM BKN018
     FM010800 06003KT P6SM BKN007 PROB30 0109/0115 4SM -RA BR
     FM011500 07005KT 5SM -SHRA BKN015 BKN025
     FM011800 05004KT 6SM -SHRA BKN035=



000
FTUS42 KFFC 312300 RRA
TAFCSG
TAF
KCSG 312342Z 0100/0124 07006KT P6SM BKN050
     FM010600 05005KT P6SM BKN018
     FM010800 06003KT P6SM BKN012
     FM011500 06005KT P6SM BKN025
     FM011800 04004KT P6SM BKN045 PROB30 0118/0124 4SM -SHRA BR=



000
FTUS42 KFFC 312100 AAB
TAFRYY
TAF AMD
KRYY 312157Z 3122/0118 09012KT 5SM SHRA BKN035
     FM312300 07006KT P6SM BKN050
     FM010500 06005KT P6SM BKN018
     FM010800 06003KT 6SM BR BKN007 PROB30 0109/0115 4SM -RA BR
     FM011500 07005KT 5SM -SHRA BKN015 BKN025=



000
FTUS42 KFFC 312100 AAB
TAFFTY
TAF AMD
KFTY 312157Z 3122/0118 09012KT 5SM SHRA BKN035
     FM312300 09006KT P6SM BKN050
     FM010500 07005KT P6SM BKN018
     FM010800 06003KT 6SM BR BKN007 PROB30 0109/0115 4SM -RA BR
     FM011500 07005KT 5SM -SHRA BKN015 BKN025=



000
FTUS42 KFFC 312100 AAC
TAFATL
TAF AMD
KATL 312143Z 3122/0124 06009KT P6SM SHRA BKN035
     FM312300 09008KT P6SM BKN050
     FM010500 07007KT P6SM BKN018
     FM010800 06007KT P6SM BKN007 PROB30 0109/0115 4SM -RA BR
     FM011500 07006KT 5SM -SHRA BKN015 BKN025
     FM011800 06005KT 6SM -SHRA BKN040=



000
FTUS42 KFFC 312100 AAC
TAFPDK
TAF AMD
KPDK 312126Z 3121/0118 VRB04KT 5SM SHRA SCT035 BKN050
      TEMPO 3121/3123 09012G20KT 2SM TSRA BKN025CB
     FM312300 07006KT P6SM BKN050
     FM010500 06005KT P6SM BKN018
     FM010800 06003KT P6SM BKN007 PROB30 0109/0115 4SM -RA BR
     FM011500 07005KT 5SM -SHRA BKN015 BKN025=



000
FTUS42 KFFC 312100 AAA
TAFMCN
TAF AMD
KMCN 312124Z 3121/0118 02004KT P6SM VCSH BKN040
     FM312300 07006KT P6SM BKN050
     FM010500 05005KT P6SM BKN018
     FM010800 06003KT P6SM BKN007
     FM011500 06005KT P6SM BKN015 BKN025 PROB30 0115/0118 4SM -RA
      BR=



000
FTUS42 KFFC 312000 AAB
TAFATL
TAF AMD
KATL 312027Z 3120/0124 03008KT P6SM VCSH BKN035
     FM312200 09008KT P6SM BKN050
     FM010500 07007KT P6SM BKN018
     FM010800 06007KT P6SM BKN007 PROB30 0109/0115 4SM -RA BR
     FM011500 07006KT 5SM -SHRA BKN015 BKN025
     FM011800 06005KT 6SM -SHRA BKN040=



000
FTUS42 KFFC 312000 AAA
TAFFTY
TAF AMD
KFTY 312027Z 3120/0118 VRB05KT P6SM VCSH SCT030 BKN050
     FM312200 09006KT P6SM BKN050
     FM010500 07005KT P6SM BKN018
     FM010800 06003KT 6SM BR BKN007 PROB30 0109/0115 4SM -RA BR
     FM011500 07005KT 5SM -SHRA BKN015 BKN025=



000
FTUS42 KFFC 312000 AAB
TAFPDK
TAF AMD
KPDK 312027Z 3120/0118 VRB04KT 5SM SHRA SCT035 BKN050
     FM312200 07006KT P6SM BKN050
     FM010500 06005KT P6SM BKN018
     FM010800 06003KT P6SM BKN007 PROB30 0109/0115 4SM -RA BR
     FM011500 07005KT 5SM -SHRA BKN015 BKN025=



000
FTUS42 KFFC 312000 AAA
TAFRYY
TAF AMD
KRYY 312027Z 3120/0118 VRB04KT P6SM VCSH SCT025 BKN060
     FM312200 07006KT P6SM BKN050
     FM010500 06005KT P6SM BKN018
     FM010800 06003KT 6SM BR BKN007 PROB30 0109/0115 4SM -RA BR
     FM011500 07005KT 5SM -SHRA BKN015 BKN025=



000
FTUS42 KFFC 311900 AAA
TAFPDK
TAF AMD
KPDK 311931Z 3120/0118 VRB04KT P6SM SCT035 BKN050
     FM312200 07006KT P6SM BKN050
     FM010500 06005KT P6SM BKN018
     FM010800 06003KT P6SM BKN007 PROB30 0109/0115 4SM -RA BR
     FM011500 07005KT 5SM -SHRA BKN015 BKN025=



000
FTUS42 KFFC 311900 AAA
TAFATL
TAF AMD
KATL 311930Z 3120/0124 03005KT P6SM BKN035
     FM312200 09008KT P6SM BKN050
     FM010500 07007KT P6SM BKN018
     FM010800 06007KT P6SM BKN007 PROB30 0109/0115 4SM -RA BR
     FM011500 07006KT 5SM -SHRA BKN015 BKN025
     FM011800 06005KT 6SM -SHRA BKN040=



000
FTUS42 KFFC 311900 AAA
TAFAHN
TAF AMD
KAHN 311916Z 3119/0118 06010G16KT P6SM VCSH SCT016 BKN025
     FM312300 07006KT P6SM BKN035
     FM010500 05005KT P6SM BKN018
     FM010800 06003KT 6SM BR BKN007 PROB30 0109/0115 4SM -RA BR
     FM011500 06005KT 5SM -SHRA BKN015 BKN025=



000
FTUS42 KFFC 311700 CCA
TAFAHN
TAF COR
KAHN 311743Z 3118/0118 VRB04KT P6SM VCSH BKN020
     FM312300 07006KT P6SM BKN035
     FM010500 05005KT P6SM BKN018
     FM010800 06003KT 6SM BR BKN007 PROB30 0109/0115 4SM -RA BR
     FM011500 06005KT 5SM -SHRA BKN015 BKN025=



000
FTUS42 KFFC 311700 RRA
TAFCSG
TAF
KCSG 311742Z 3118/0118 VRB04KT P6SM BKN040
     FM312200 07006KT P6SM BKN035
     FM010500 05005KT P6SM BKN018
     FM010800 06003KT P6SM BKN012
     FM011500 06005KT P6SM BKN025 PROB30 0116/0118 4SM -RA BR=



000
FTUS42 KFFC 311700 RRA
TAFRYY
TAF
KRYY 311742Z 3118/0118 VRB04KT P6SM SCT025 BKN060
     FM312200 07006KT P6SM BKN050
     FM010500 06005KT P6SM BKN018
     FM010800 06003KT 6SM BR BKN007 PROB30 0109/0115 4SM -RA BR
     FM011500 07005KT 5SM -SHRA BKN015 BKN025=



000
FTUS42 KFFC 311700 RRA
TAFPDK
TAF
KPDK 311742Z 3118/0118 VRB04KT P6SM BKN030
     FM312200 07006KT P6SM BKN050
     FM010500 06005KT P6SM BKN018
     FM010800 06003KT P6SM BKN007 PROB30 0109/0115 4SM -RA BR
     FM011500 07005KT 5SM -SHRA BKN015 BKN025=



000
FTUS42 KFFC 311700 RRA
TAFFTY
TAF
KFTY 311742Z 3118/0118 VRB05KT P6SM SCT030 BKN050
     FM312200 09006KT P6SM BKN050
     FM010500 07005KT P6SM BKN018
     FM010800 06003KT 6SM BR BKN007 PROB30 0109/0115 4SM -RA BR
     FM011500 07005KT 5SM -SHRA BKN015 BKN025=



000
FTUS42 KFFC 311700 RRA
TAFMCN
TAF
KMCN 311742Z 3118/0118 VRB04KT P6SM SCT025
     FM312200 07006KT P6SM BKN035
     FM010500 05005KT P6SM BKN018
     FM010800 06003KT P6SM BKN007
     FM011500 06005KT P6SM BKN015 BKN025 PROB30 0115/0118 4SM -RA
      BR=



000
FTUS42 KFFC 311700 RRA
TAFAHN
TAF
KAHN 311742Z 3118/0118 VRB04KT P6SM BKN020
     FM312200 07006KT P6SM BKN035
     FM010500 05005KT P6SM BKN018
     FM010800 06003KT 6SM BR BKN007 PROB30 0109/0115 4SM -RA BR
     FM011500 06005KT 5SM -SHRA BKN015 BKN025=



000
FTUS42 KFFC 311700 RRA
TAFATL
TAF
KATL 311742Z 3118/0124 10007KT P6SM BKN030
     FM312200 09008KT P6SM BKN050
     FM010500 07007KT P6SM BKN018
     FM010800 06007KT P6SM BKN007 PROB30 0109/0115 4SM -RA BR
     FM011500 07006KT 5SM -SHRA BKN015 BKN025
     FM011800 06005KT 6SM -SHRA BKN040=



000
FTUS42 KFFC 311600 AAD
TAFATL
TAF AMD
KATL 311657Z 3117/0118 10007KT P6SM BKN025 BKN150
     FM311800 07007KT P6SM BKN050
     FM010000 07008KT P6SM BKN150
     FM010900 06008KT 6SM BR BKN008 PROB30 0109/0115 4SM -RA BR
     FM011500 07006KT P6SM VCSH SCT015 BKN025
      TEMPO 0115/0118 4SM -SHRA BR BKN015=



000
FTUS42 KFFC 311600 AAA
TAFMCN
TAF AMD
KMCN 311614Z 3116/0112 10004KT P6SM SCT040 BKN150
      TEMPO 3116/3118 BKN020
     FM311800 08005KT P6SM BKN050
     FM010000 07005KT P6SM BKN150
     FM010900 06008KT 6SM BR BKN008=



000
FTUS42 KFFC 311600 AAC
TAFATL
TAF AMD
KATL 311605Z 3116/0118 09007KT P6SM SCT040 BKN150
      TEMPO 3116/3117 BKN017
     FM311800 07007KT P6SM BKN050
     FM010000 07008KT P6SM BKN150
     FM010900 06008KT 6SM BR BKN008 PROB30 0109/0115 4SM -RA BR
     FM011500 07006KT P6SM VCSH SCT015 BKN025
      TEMPO 0115/0118 4SM -SHRA BR BKN015=



000
FTUS42 KFFC 311500 AAB
TAFRYY
TAF AMD
KRYY 311528Z 3115/0112 VRB05KT P6SM SCT040 BKN150
      TEMPO 3115/3117 BKN015
     FM311800 06006KT P6SM BKN050
     FM010000 07005KT P6SM BKN150
     FM010900 06008KT 6SM BR BKN008 PROB30 0109/0112 4SM -RA BR=



000
FTUS42 KFFC 311500 AAB
TAFPDK
TAF AMD
KPDK 311527Z 3115/0112 VRB05KT P6SM SCT040 BKN150
      TEMPO 3115/3117 BKN015
     FM311800 06006KT P6SM BKN050
     FM010000 07005KT P6SM BKN150
     FM010900 06008KT 6SM BR BKN008 PROB30 0109/0112 4SM -RA BR=



000
FTUS42 KFFC 311500 AAB
TAFFTY
TAF AMD
KFTY 311526Z 3115/0112 35004KT P6SM SCT040 BKN150
      TEMPO 3115/3117 BKN015
     FM311800 06006KT P6SM BKN050
     FM010000 07005KT P6SM BKN150
     FM010900 06008KT 6SM BR BKN008 PROB30 0109/0112 4SM -RA BR=



000
FTUS42 KFFC 311500 AAA
TAFAHN
TAF AMD
KAHN 311525Z 3115/0112 07005KT P6SM SCT040 SCT150
      TEMPO 3115/3117 SCT015 BKN025
     FM311800 07005KT P6SM BKN050
     FM010000 07008KT P6SM BKN150
     FM010900 06008KT 6SM BR BKN008 PROB30 0109/0112 4SM -RA BR=



000
FTUS42 KFFC 311500 AAB
TAFATL
TAF AMD
KATL 311524Z 3115/0118 09007KT P6SM SCT040 BKN150
      TEMPO 3115/3117 BKN015
     FM311800 07007KT P6SM BKN050
     FM010000 07008KT P6SM BKN150
     FM010900 06008KT 6SM BR BKN008 PROB30 0109/0115 4SM -RA BR
     FM011500 07006KT P6SM VCSH SCT015 BKN025
      TEMPO 0115/0118 4SM -SHRA BR BKN015=



000
FTUS42 KFFC 311400 AAA
TAFRYY
TAF AMD
KRYY 311445Z 3115/0112 VRB04KT P6SM SCT015 BKN150
      TEMPO 3115/3116 BKN015
     FM311600 08003KT P6SM SCT040 SCT150
     FM311800 06006KT P6SM BKN050
     FM010000 07005KT P6SM BKN150
     FM010900 06008KT 6SM BR BKN008 PROB30 0109/0112 4SM -RA BR=



000
FTUS42 KFFC 311400 AAA
TAFFTY
TAF AMD
KFTY 311444Z 3115/0112 35004KT P6SM SCT015 BKN150
      TEMPO 3115/3116 BKN015
     FM311600 08004KT P6SM SCT040 SCT150
     FM311800 06006KT P6SM BKN050
     FM010000 07005KT P6SM BKN150
     FM010900 06008KT 6SM BR BKN008 PROB30 0109/0112 4SM -RA BR=



000
FTUS42 KFFC 311400 AAA
TAFPDK
TAF AMD
KPDK 311444Z 3115/0112 04005KT P6SM SCT015 BKN150
      TEMPO 3115/3116 BKN015
     FM311600 08004KT P6SM SCT040 SCT150
     FM311800 06006KT P6SM BKN050
     FM010000 07005KT P6SM BKN150
     FM010900 06008KT 6SM BR BKN008 PROB30 0109/0112 4SM -RA BR=



000
FTUS42 KFFC 311300 AAA
TAFATL
TAF AMD
KATL 311357Z 3114/0118 08007KT P6SM BKN150
     FM311600 09007KT P6SM SCT040 SCT150
     FM311800 07007KT P6SM BKN050
     FM010000 07008KT P6SM BKN150
     FM010900 06008KT 6SM BR BKN008 PROB30 0109/0115 4SM -RA BR
     FM011500 07006KT P6SM VCSH SCT015 BKN025
      TEMPO 0115/0118 4SM -SHRA BR BKN015=



000
FTUS42 KFFC 311100
TAFFTY
TAF
KFTY 311130Z 3112/0112 00000KT P6SM BKN150
     FM311600 08004KT P6SM SCT040 SCT150
     FM311800 06006KT P6SM BKN050
     FM010000 07005KT P6SM BKN150
     FM010900 06008KT 6SM BR BKN008 PROB30 0109/0112 4SM -RA BR=



000
FTUS42 KFFC 311100
TAFMCN
TAF
KMCN 311130Z 3112/0112 00000KT P6SM BKN200
     FM311600 10004KT P6SM SCT040 SCT150
     FM311800 08005KT P6SM BKN050
     FM010000 07005KT P6SM BKN150
     FM010900 06008KT 6SM BR BKN008=



000
FTUS42 KFFC 311100
TAFRYY
TAF
KRYY 311130Z 3112/0112 00000KT P6SM BKN150
     FM311600 08003KT P6SM SCT040 SCT150
     FM311800 06006KT P6SM BKN050
     FM010000 07005KT P6SM BKN150
     FM010900 06008KT 6SM BR BKN008 PROB30 0109/0112 4SM -RA BR=



000
FTUS42 KFFC 311100
TAFCSG
TAF
KCSG 311130Z 3112/0112 04003KT P6SM BKN200
     FM311600 11004KT P6SM SCT040 SCT150
     FM311800 09005KT P6SM BKN050
     FM010000 07005KT P6SM BKN150
     FM010900 06008KT 6SM BR BKN008=



000
FTUS42 KFFC 311100
TAFAHN
TAF
KAHN 311130Z 3112/0112 07003KT P6SM BKN150
     FM311600 07005KT P6SM SCT040 SCT150
     FM311800 07005KT P6SM BKN050
     FM010000 07008KT P6SM BKN150
     FM010900 06008KT 6SM BR BKN008 PROB30 0109/0112 4SM -RA BR=



000
FTUS42 KFFC 311100
TAFATL
TAF
KATL 311130Z 3112/0118 07007KT P6SM BKN150
     FM311600 09007KT P6SM SCT040 SCT150
     FM311800 07007KT P6SM BKN050
     FM010000 07008KT P6SM BKN150
     FM010900 06008KT 6SM BR BKN008 PROB30 0109/0115 4SM -RA BR
     FM011500 07006KT P6SM VCSH SCT015 BKN025
      TEMPO 0115/0118 4SM -SHRA BR BKN015=



000
FTUS42 KFFC 311100
TAFPDK
TAF
KPDK 311130Z 3112/0112 00000KT P6SM BKN150
     FM311600 08004KT P6SM SCT040 SCT150
     FM311800 06006KT P6SM BKN050
     FM010000 07005KT P6SM BKN150
     FM010900 06008KT 6SM BR BKN008 PROB30 0109/0112 4SM -RA BR=



000
FTUS42 KFFC 311000 AAB
TAFATL
TAF AMD
KATL 311008Z 3110/0112 07007KT P6SM BKN150
     FM311600 09007KT P6SM SCT040 SCT150
     FM311800 07007KT P6SM BKN050
     FM010000 07008KT P6SM BKN150
     FM010900 06008KT P6SM BKN008 PROB30 0109/0112 6SM -RA BR=



000
FTUS42 KFFC 310700 AAA
TAFATL
TAF AMD
KATL 310752Z 3108/0112 04005KT P6SM BKN120
     FM311600 09007KT P6SM SCT040 SCT200
     FM311800 07007KT P6SM BKN050
     FM010000 07008KT P6SM BKN150
     FM010900 06008KT P6SM BKN008=



000
FTUS42 KFFC 310500
TAFAHN
TAF
KAHN 310525Z 3106/0106 07003KT P6SM SCT200
     FM311600 07005KT P6SM SCT040 SCT200
     FM311800 07005KT P6SM BKN050
     FM010000 07008KT P6SM BKN150=



000
FTUS42 KFFC 310500
TAFFTY
TAF
KFTY 310525Z 3106/0106 00000KT P6SM SCT200
     FM311600 08004KT P6SM SCT040 SCT200
     FM311800 06006KT P6SM BKN050
     FM010000 07005KT P6SM BKN150=



000
FTUS42 KFFC 310500
TAFPDK
TAF
KPDK 310525Z 3106/0106 00000KT P6SM SCT200
     FM311600 08004KT P6SM SCT040 SCT200
     FM311800 06006KT P6SM BKN050
     FM010000 07005KT P6SM BKN150=



000
FTUS42 KFFC 310500
TAFCSG
TAF
KCSG 310525Z 3106/0106 04003KT P6SM SCT250
     FM311600 11004KT P6SM SCT040 SCT250
     FM311800 09005KT P6SM BKN050
     FM010000 07005KT P6SM BKN150=



000
FTUS42 KFFC 310500
TAFRYY
TAF
KRYY 310525Z 3106/0106 00000KT P6SM SCT200
     FM311600 08003KT P6SM SCT040 SCT200
     FM311800 06006KT P6SM BKN050
     FM010000 07005KT P6SM BKN150
      AMD NOT SKED TIL 311200=



000
FTUS42 KFFC 310500
TAFATL
TAF
KATL 310525Z 3106/0112 05005KT P6SM BKN200
     FM311600 09007KT P6SM SCT040 SCT200
     FM311800 07007KT P6SM BKN050
     FM010000 07008KT P6SM BKN150
     FM010900 06008KT P6SM BKN008=



000
FTUS42 KFFC 310500
TAFMCN
TAF
KMCN 310525Z 3106/0106 00000KT P6SM SCT250
     FM311600 10004KT P6SM SCT040 SCT250
     FM311800 08005KT P6SM BKN050
     FM010000 07005KT P6SM BKN150=



000
FTUS42 KFFC 310300 AAB
TAFATL
TAF AMD
KATL 310335Z 3104/0106 05005KT P6SM BKN200
     FM311600 09007KT P6SM SCT040 SCT200
     FM311800 07007KT P6SM BKN050
     FM010300 07008KT P6SM SCT020 BKN150=



000
FTUS42 KFFC 310100 AAA
TAFATL
TAF AMD
KATL 310144Z 3102/0106 02006KT P6SM FEW070 SCT250
     FM310400 05005KT P6SM BKN200
     FM311600 09007KT P6SM SCT040 SCT200
     FM311800 07007KT P6SM BKN050
     FM010300 07008KT P6SM SCT020 BKN150=



000
FTUS42 KFFC 302300 RRA
TAFMCN
TAF
KMCN 302341Z 3100/3124 02004KT P6SM SKC
     FM310300 08003KT P6SM SCT250
     FM311600 10004KT P6SM SCT040 SCT250
     FM311800 08005KT P6SM BKN050=



000
FTUS42 KFFC 302300 RRA
TAFCSG
TAF
KCSG 302341Z 3100/3124 02004KT P6SM SKC
     FM310200 06003KT P6SM SCT250
     FM311600 11004KT P6SM SCT040 SCT250
     FM311800 09005KT P6SM BKN050=



000
FTUS42 KFFC 302300 RRA
TAFAHN
TAF
KAHN 302341Z 3100/3124 03004KT P6SM FEW250
     FM310300 07003KT P6SM SCT200
     FM311600 07005KT P6SM SCT040 SCT200
     FM311800 07005KT P6SM BKN050=



000
FTUS42 KFFC 302300 RRA
TAFATL
TAF
KATL 302341Z 3100/0106 02006KT P6SM SCT250
     FM310300 05005KT P6SM SCT200
     FM311600 09007KT P6SM SCT040 SCT200
     FM311800 07007KT P6SM BKN050
     FM010300 07008KT P6SM SCT020 BKN150=



000
FTUS42 KFFC 302300 RRA
TAFRYY
TAF
KRYY 302341Z 3100/3124 00000KT P6SM SCT250
     FM310300 00000KT P6SM SCT200
     FM311600 08003KT P6SM SCT040 SCT200
     FM311800 06006KT P6SM BKN050
      AMD NOT SKED 3104/3112=



000
FTUS42 KFFC 302300 RRA
TAFFTY
TAF
KFTY 302341Z 3100/3124 02004KT P6SM SCT250
     FM310300 00000KT P6SM SCT200
     FM311600 08004KT P6SM SCT040 SCT200
     FM311800 06006KT P6SM BKN050=



000
FTUS42 KFFC 302300 RRA
TAFPDK
TAF
KPDK 302341Z 3100/3124 02004KT P6SM SCT250
     FM310300 00000KT P6SM SCT200
     FM311600 08004KT P6SM SCT040 SCT200
     FM311800 06006KT P6SM BKN050=



000
FTUS42 KFFC 302100 AAB
TAFATL
TAF AMD
KATL 302145Z 3022/3124 02006KT P6SM SCT070 SCT250
     FM310300 04005KT P6SM SCT200
     FM311600 06007KT P6SM SCT040 SCT200=



000
FTUS42 KFFC 301900 AAA
TAFATL
TAF AMD
KATL 301946Z 3020/3124 06006KT P6SM SCT050 SCT250
     FM310300 04005KT P6SM SCT250
     FM311600 06007KT P6SM SCT040=



000
FTUS42 KFFC 301700
TAFFTY
TAF
KFTY 301729Z 3018/3118 03005KT P6SM SCT045 SCT250
     FM310300 00000KT P6SM SCT250
     FM311600 08003KT P6SM SCT040=



000
FTUS42 KFFC 301700
TAFMCN
TAF
KMCN 301729Z 3018/3118 03005KT P6SM SCT045 SCT250
     FM310300 08003KT P6SM SCT250
     FM311600 11005KT P6SM SCT040=



000
FTUS42 KFFC 301700
TAFPDK
TAF
KPDK 301729Z 3018/3118 03005KT P6SM SCT045 SCT250
     FM310300 00000KT P6SM SCT250
     FM311600 08003KT P6SM SCT040=



000
FTUS42 KFFC 301700
TAFCSG
TAF
KCSG 301729Z 3018/3118 03005KT P6SM SCT045 SCT250
     FM310300 07003KT P6SM SCT250
     FM311600 11004KT P6SM SCT040=



000
FTUS42 KFFC 301700
TAFAHN
TAF
KAHN 301729Z 3018/3118 05005KT P6SM SCT045 SCT250
     FM310300 06004KT P6SM SCT250
     FM311600 08004KT P6SM SCT040=



000
FTUS42 KFFC 301700
TAFATL
TAF
KATL 301729Z 3018/3124 03006KT P6SM SCT045 SCT250
     FM310300 04005KT P6SM SCT250
     FM311600 06007KT P6SM SCT040=



000
FTUS42 KFFC 301700
TAFRYY
TAF
KRYY 301729Z 3018/3118 03005KT P6SM SCT045 SCT250
     FM310300 00000KT P6SM SCT250
     FM311600 10003KT P6SM SCT040=



000
FTUS42 KFFC 301500 AAA
TAFCSG
TAF AMD
KCSG 301552Z 3016/3112 02004KT P6SM FEW030
     FM301800 03005KT P6SM SCT030 SCT250
     FM310300 03005KT P6SM FEW250
     FM310900 00000KT P6SM BKN150=



000
FTUS42 KFFC 301500 AAA
TAFMCN
TAF AMD
KMCN 301552Z 3016/3112 02004KT P6SM FEW030
     FM301800 03005KT P6SM SCT030 SCT250
     FM310300 03005KT P6SM FEW250
     FM310900 00000KT P6SM BKN150=



000
FTUS42 KFFC 301500 AAA
TAFAHN
TAF AMD
KAHN 301552Z 3016/3112 06004KT P6SM FEW030
     FM301800 03005KT P6SM SCT030 SCT250
     FM310300 03005KT P6SM FEW250
     FM310900 00000KT P6SM BKN150=



000
FTUS42 KFFC 301500 AAA
TAFPDK
TAF AMD
KPDK 301552Z 3016/3112 06004KT P6SM FEW030
     FM301800 03005KT P6SM SCT030 SCT250
     FM310300 03005KT P6SM FEW250
     FM310900 00000KT P6SM BKN150=



000
FTUS42 KFFC 301500 AAB
TAFATL
TAF AMD
KATL 301552Z 3016/3118 06008KT P6SM FEW030
     FM301800 03006KT P6SM SCT030 SCT250
     FM310300 03005KT P6SM FEW250
     FM310900 07005KT P6SM BKN150=



000
FTUS42 KFFC 301500 AAA
TAFFTY
TAF AMD
KFTY 301552Z 3016/3112 03004KT P6SM FEW030
     FM301800 03005KT P6SM SCT030 SCT250
     FM310300 03005KT P6SM FEW250
     FM310900 00000KT P6SM BKN150=



000
FTUS42 KFFC 301500 AAA
TAFRYY
TAF AMD
KRYY 301552Z 3016/3112 06004KT P6SM FEW030
     FM301800 03005KT P6SM SCT030 SCT250
     FM310300 03005KT P6SM FEW250
     FM310900 00000KT P6SM BKN150=



000
FTUS42 KFFC 301400 AAA
TAFATL
TAF AMD
KATL 301404Z 3014/3118 04008KT P6SM FEW030
     FM301800 35006KT P6SM SCT030 SCT250
     FM310300 03005KT P6SM FEW250
     FM310900 07005KT P6SM BKN150=



000
FTUS42 KFFC 301100
TAFCSG
TAF
KCSG 301138Z 3012/3112 35003KT P6SM SKC
     FM301300 02004KT P6SM FEW030
     FM301800 35005KT P6SM SCT030 SCT250
     FM310300 03005KT P6SM FEW250
     FM310900 00000KT P6SM BKN150=



000
FTUS42 KFFC 301100
TAFATL
TAF
KATL 301138Z 3012/3118 33006KT P6SM SKC
     FM301400 02006KT P6SM FEW030
     FM301800 35006KT P6SM SCT030 SCT250
     FM310300 03005KT P6SM FEW250
     FM310900 07005KT P6SM BKN150=



000
FTUS42 KFFC 301100
TAFFTY
TAF
KFTY 301138Z 3012/3112 00000KT P6SM SKC
     FM301400 02004KT P6SM FEW030
     FM301800 35005KT P6SM SCT030 SCT250
     FM310300 03005KT P6SM FEW250
     FM310900 00000KT P6SM BKN150=



000
FTUS42 KFFC 301100
TAFPDK
TAF
KPDK 301138Z 3012/3112 00000KT P6SM SKC
     FM301400 02004KT P6SM FEW030
     FM301800 35005KT P6SM SCT030 SCT250
     FM310300 03005KT P6SM FEW250
     FM310900 00000KT P6SM BKN150=



000
FTUS42 KFFC 301100
TAFRYY
TAF
KRYY 301138Z 3012/3112 30005KT P6SM SKC
     FM301400 02004KT P6SM FEW030
     FM301800 35005KT P6SM SCT030 SCT250
     FM310300 03005KT P6SM FEW250
     FM310900 00000KT P6SM BKN150=



000
FTUS42 KFFC 301100
TAFMCN
TAF
KMCN 301138Z 3012/3112 30005KT P6SM SKC
     FM301400 02004KT P6SM FEW030
     FM301800 35005KT P6SM SCT030 SCT250
     FM310300 03005KT P6SM FEW250
     FM310900 00000KT P6SM BKN150=



000
FTUS42 KFFC 301100
TAFAHN
TAF
KAHN 301138Z 3012/3112 00000KT P6SM SKC
     FM301400 02004KT P6SM FEW030
     FM301800 35005KT P6SM SCT030 SCT250
     FM310300 03005KT P6SM FEW250
     FM310900 00000KT P6SM BKN150=



000
FTUS42 KFFC 300900 AAB
TAFATL
TAF AMD
KATL 300941Z 3010/3112 33006KT P6SM SKC
     FM301400 02006KT P6SM FEW030
     FM301800 35006KT P6SM SCT030 SCT250
     FM310300 03005KT P6SM FEW250
     FM310900 07005KT P6SM BKN150=



000
FTUS42 KFFC 300900 AAA
TAFATL
TAF AMD
KATL 300915Z 3009/3112 32007KT P6SM SKC
     FM301400 02006KT P6SM FEW030
     FM301800 35006KT P6SM SCT030 SCT250
     FM310300 03005KT P6SM FEW250
     FM310900 07005KT P6SM BKN150=



000
FTUS42 KFFC 300500
TAFFTY
TAF
KFTY 300525Z 3006/3106 35003KT P6SM SKC
     FM301400 02004KT P6SM FEW030
     FM301800 35005KT P6SM SCT030 SCT250
     FM310300 03005KT P6SM FEW250=



000
FTUS42 KFFC 300500
TAFATL
TAF
KATL 300525Z 3006/3112 34010KT P6SM SKC
     FM301400 02006KT P6SM FEW030
     FM301800 35006KT P6SM SCT030 SCT250
     FM310300 03005KT P6SM FEW250
     FM310900 07005KT P6SM BKN150=



000
FTUS42 KFFC 300500
TAFMCN
TAF
KMCN 300525Z 3006/3106 30005KT P6SM SKC
     FM301400 02004KT P6SM FEW030
     FM301800 35005KT P6SM SCT030 SCT250
     FM310300 03005KT P6SM FEW250=



000
FTUS42 KFFC 300500
TAFCSG
TAF
KCSG 300525Z 3006/3106 35005KT P6SM SKC
     FM301300 02004KT P6SM FEW030
     FM301800 35005KT P6SM SCT030 SCT250
     FM310300 03005KT P6SM FEW250=



000
FTUS42 KFFC 300500
TAFPDK
TAF
KPDK 300525Z 3006/3106 34005KT P6SM SKC
     FM301400 02004KT P6SM FEW030
     FM301800 35005KT P6SM SCT030 SCT250
     FM310300 03005KT P6SM FEW250=



000
FTUS42 KFFC 300500
TAFAHN
TAF
KAHN 300525Z 3006/3106 33005KT P6SM SKC
     FM301400 02004KT P6SM FEW030
     FM301800 35005KT P6SM SCT030 SCT250
     FM310300 03005KT P6SM FEW250=



000
FTUS42 KFFC 300500
TAFRYY
TAF
KRYY 300525Z 3006/3106 35005KT P6SM SKC
     FM301400 02004KT P6SM FEW030
     FM301800 35005KT P6SM SCT030 SCT250
     FM310300 03005KT P6SM FEW250
      AMD NOT SKED TIL 301200=



000
FTUS42 KFFC 300300 AAB
TAFATL
TAF AMD
KATL 300343Z 3004/3106 34008KT P6SM SKC
     FM301300 02006KT P6SM FEW030
     FM301800 35006KT P6SM SCT030 SCT250=



000
FTUS42 KFFC 300100 AAA
TAFATL
TAF AMD
KATL 300134Z 3002/3106 32007KT P6SM SKC
     FM301300 02006KT P6SM FEW030
     FM301800 35006KT P6SM SCT030 SCT250=



000
FTUS42 KFFC 292300
TAFAHN
TAF
KAHN 292327Z 3000/3024 30005KT P6SM FEW060
     FM300200 33004KT P6SM SKC
     FM301300 04005KT P6SM FEW030
     FM301800 02005KT P6SM SCT050=



000
FTUS42 KFFC 292300
TAFFTY
TAF
KFTY 292327Z 3000/3024 29008KT P6SM FEW060
     FM300200 00000KT P6SM SKC
     FM301300 02004KT P6SM FEW030
     FM301800 35005KT P6SM SCT030 SCT250=



000
FTUS42 KFFC 292300
TAFPDK
TAF
KPDK 292327Z 3000/3024 31008KT P6SM FEW060
     FM300200 00000KT P6SM SKC
     FM301300 02004KT P6SM FEW030
     FM301800 35005KT P6SM SCT030 SCT250=



000
FTUS42 KFFC 292300
TAFATL
TAF
KATL 292327Z 3000/3106 31010G16KT P6SM FEW060
     FM300100 33007KT P6SM SKC
     FM301300 02006KT P6SM FEW030
     FM301800 35006KT P6SM SCT030 SCT250=



000
FTUS42 KFFC 292300
TAFRYY
TAF
KRYY 292327Z 3000/3024 32008KT P6SM FEW060
     FM300200 00000KT P6SM SKC
     FM301300 02004KT P6SM FEW030
     FM301800 35005KT P6SM SCT030 SCT250
      AMD NOT SKED 3004/3012=



000
FTUS42 KFFC 292300
TAFMCN
TAF
KMCN 292327Z 3000/3024 33006KT P6SM FEW080
     FM300100 32004KT P6SM SKC
     FM301300 04006KT P6SM FEW030
     FM301800 VRB03KT P6SM SCT050=



000
FTUS42 KFFC 292300
TAFCSG
TAF
KCSG 292327Z 3000/3024 34008KT P6SM FEW060
     FM300100 34004KT P6SM SKC
     FM301300 36004KT P6SM FEW030
     FM301800 33005KT P6SM FEW050=



000
FTUS42 KFFC 292100 AAB
TAFATL
TAF AMD
KATL 292138Z 2922/3024 31011G16KT P6SM FEW050
     FM300100 35007KT P6SM SKC
     FM301300 04006KT P6SM FEW030
     FM301800 35006KT P6SM SCT030 SCT250=



000
FTUS42 KFFC 291900 AAA
TAFATL
TAF AMD
KATL 291951Z 2920/3024 31011G16KT P6SM SCT050
     FM300100 35007KT P6SM SKC
     FM301300 04006KT P6SM FEW030
     FM301800 35006KT P6SM SCT030 SCT250=



000
FTUS42 KFFC 291900 AAA
TAFFTY
TAF AMD
KFTY 291951Z 2920/3018 31009KT P6SM SCT050
     FM300000 32005KT P6SM SKC
     FM301300 04006KT P6SM FEW030=



000
FTUS42 KFFC 291900 AAA
TAFPDK
TAF AMD
KPDK 291951Z 2920/3018 33008KT P6SM SCT050
     FM300000 32005KT P6SM SKC
     FM301300 04006KT P6SM FEW030=



000
FTUS42 KFFC 291900 AAA
TAFAHN
TAF AMD
KAHN 291951Z 2920/3018 31008KT P6SM SCT050
     FM300000 32005KT P6SM SKC
     FM301300 04006KT P6SM FEW030=



000
FTUS42 KFFC 291900 AAA
TAFMCN
TAF AMD
KMCN 291951Z 2920/3018 30008KT P6SM SCT050
     FM300000 32005KT P6SM SKC
     FM301300 04006KT P6SM FEW030=



000
FTUS42 KFFC 291900 AAA
TAFCSG
TAF AMD
KCSG 291951Z 2920/3018 32008G16KT P6SM SCT050
     FM300000 32005KT P6SM SKC
     FM301300 04006KT P6SM FEW030=



000
FTUS42 KFFC 291900 AAA
TAFRYY
TAF AMD
KRYY 291951Z 2920/3018 33008G15KT P6SM SCT050
     FM300000 32005KT P6SM SKC
     FM301300 04006KT P6SM FEW030=



000
FTUS42 KFFC 291700
TAFFTY
TAF
KFTY 291721Z 2918/3018 31008G16KT P6SM SCT050
     FM300000 32005KT P6SM SKC
     FM301300 04006KT P6SM FEW030=



000
FTUS42 KFFC 291700
TAFRYY
TAF
KRYY 291721Z 2918/3018 31008G16KT P6SM SCT050
     FM300000 32005KT P6SM SKC
     FM301300 04006KT P6SM FEW030=



000
FTUS42 KFFC 291700
TAFAHN
TAF
KAHN 291721Z 2918/3018 31008G16KT P6SM SCT050
     FM300000 32005KT P6SM SKC
     FM301300 04006KT P6SM FEW030=



000
FTUS42 KFFC 291700
TAFMCN
TAF
KMCN 291721Z 2918/3018 31008G16KT P6SM SCT050
     FM300000 32005KT P6SM SKC
     FM301300 04006KT P6SM FEW030=



000
FTUS42 KFFC 291700
TAFCSG
TAF
KCSG 291721Z 2918/3018 31008G16KT P6SM SCT050
     FM300000 32005KT P6SM SKC
     FM301300 04006KT P6SM FEW030=



000
FTUS42 KFFC 291700
TAFATL
TAF
KATL 291721Z 2918/3024 32012G18KT P6SM SCT045
     FM300100 35007KT P6SM SKC
     FM301300 04006KT P6SM FEW030
     FM301800 35006KT P6SM SCT030 SCT250=



000
FTUS42 KFFC 291700
TAFPDK
TAF
KPDK 291721Z 2918/3018 31008G16KT P6SM SCT050
     FM300000 32005KT P6SM SKC
     FM301300 04006KT P6SM FEW030=



000
FTUS42 KFFC 291500 AAB
TAFATL
TAF AMD
KATL 291559Z 2916/3018 32012G18KT P6SM SCT045
     FM300100 35007KT P6SM SKC
     FM301300 04006KT P6SM FEW030=



000
FTUS42 KFFC 291400 AAA
TAFATL
TAF AMD
KATL 291400Z 2914/3018 32008KT P6SM SKC
     FM291600 32012G18KT P6SM SCT050
     FM300100 35007KT P6SM SKC
     FM301300 04006KT P6SM FEW030=



000
FTUS42 KFFC 291100
TAFCSG
TAF
KCSG 291120Z 2912/3012 34005KT P6SM SKC
     FM291600 35009G18KT P6SM SCT050
     FM300000 35006KT P6SM SKC=



000
FTUS42 KFFC 291100
TAFFTY
TAF
KFTY 291120Z 2912/3012 32006KT P6SM SKC
     FM291600 32008G16KT P6SM SCT050
     FM300000 32005KT P6SM SKC=



000
FTUS42 KFFC 291100
TAFMCN
TAF
KMCN 291120Z 2912/3012 30005KT P6SM SKC
     FM291600 32009G18KT P6SM SCT050
     FM300000 34006KT P6SM SKC=



000
FTUS42 KFFC 291100
TAFAHN
TAF
KAHN 291120Z 2912/3012 31006KT P6SM SKC
     FM291600 31008G16KT P6SM SCT050
     FM300000 30005KT P6SM SKC=



000
FTUS42 KFFC 291100
TAFPDK
TAF
KPDK 291120Z 2912/3012 33006KT P6SM SKC
     FM291600 32008G16KT P6SM SCT050
     FM300000 32005KT P6SM SKC=



000
FTUS42 KFFC 291100
TAFATL
TAF
KATL 291120Z 2912/3018 32008KT P6SM SKC
     FM291600 32012G18KT P6SM SCT050
     FM300100 35007KT P6SM SKC
     FM301300 04006KT P6SM FEW030=



000
FTUS42 KFFC 291100
TAFRYY
TAF
KRYY 291120Z 2912/3012 33006KT P6SM SKC
     FM291600 32008G16KT P6SM SCT050
     FM300000 32005KT P6SM SKC=



    US Dept of Commerce
    National Oceanic and Atmospheric Administration
    National Weather Service
    1325 East West Highway
    Silver Spring, MD 20910
    Page Author: NWS Internet Services Team
Disclaimer
Information Quality
Credits
Glossary
Privacy Policy
Freedom of Information Act (FOIA)
About Us
Career Opportunities